sensor_id;sensor_type;location;lat;lon;timestamp;P1;durP1;ratioP1;P2;durP2;ratioP2
11998;SDS011;40817;51.520;9.954;2023-06-10T00:00:04;5.78;;;4.18;;
11998;SDS011;40817;51.520;9.954;2023-06-10T00:02:34;7.20;;;4.60;;
11998;SDS011;40817;51.520;9.954;2023-06-10T00:05:01;5.50;;;4.45;;
11998;SDS011;40817;51.520;9.954;2023-06-10T00:07:30;6.13;;;4.90;;
11998;SDS011;40817;51.520;9.954;2023-06-10T00:09:57;6.75;;;4.35;;
11998;SDS011;40817;51.520;9.954;2023-06-10T00:12:30;7.20;;;4.80;;
11998;SDS011;40817;51.520;9.954;2023-06-10T00:15:04;6.13;;;4.35;;
11998;SDS011;40817;51.520;9.954;2023-06-10T00:17:34;7.28;;;4.05;;
11998;SDS011;40817;51.520;9.954;2023-06-10T00:20:05;6.85;;;4.35;;
11998;SDS011;40817;51.520;9.954;2023-06-10T00:22:37;9.45;;;4.88;;
11998;SDS011;40817;51.520;9.954;2023-06-10T00:25:05;6.88;;;4.38;;
11998;SDS011;40817;51.520;9.954;2023-06-10T00:27:34;7.97;;;4.53;;
11998;SDS011;40817;51.520;9.954;2023-06-10T00:30:04;6.90;;;4.28;;
11998;SDS011;40817;51.520;9.954;2023-06-10T00:32:33;6.18;;;4.32;;
11998;SDS011;40817;51.520;9.954;2023-06-10T00:35:02;5.95;;;4.13;;
11998;SDS011;40817;51.520;9.954;2023-06-10T00:37:30;6.60;;;4.32;;
11998;SDS011;40817;51.520;9.954;2023-06-10T00:40:00;7.47;;;4.70;;
11998;SDS011;40817;51.520;9.954;2023-06-10T00:42:28;5.72;;;4.32;;
11998;SDS011;40817;51.520;9.954;2023-06-10T00:44:56;5.63;;;3.70;;
11998;SDS011;40817;51.520;9.954;2023-06-10T00:47:24;6.10;;;3.85;;
11998;SDS011;40817;51.520;9.954;2023-06-10T00:49:53;6.03;;;4.10;;
11998;SDS011;40817;51.520;9.954;2023-06-10T00:52:21;6.28;;;4.25;;
11998;SDS011;40817;51.520;9.954;2023-06-10T00:54:53;5.65;;;4.07;;
11998;SDS011;40817;51.520;9.954;2023-06-10T00:57:20;5.40;;;3.88;;
11998;SDS011;40817;51.520;9.954;2023-06-10T00:59:48;6.03;;;4.28;;
11998;SDS011;40817;51.520;9.954;2023-06-10T01:02:16;7.60;;;4.25;;
11998;SDS011;40817;51.520;9.954;2023-06-10T01:04:45;6.35;;;3.88;;
11998;SDS011;40817;51.520;9.954;2023-06-10T01:07:14;7.38;;;4.32;;
11998;SDS011;40817;51.520;9.954;2023-06-10T01:09:54;5.70;;;4.32;;
11998;SDS011;40817;51.520;9.954;2023-06-10T01:12:30;7.00;;;4.13;;
11998;SDS011;40817;51.520;9.954;2023-06-10T01:15:05;5.57;;;4.10;;
11998;SDS011;40817;51.520;9.954;2023-06-10T01:17:37;7.35;;;4.32;;
11998;SDS011;40817;51.520;9.954;2023-06-10T01:20:38;5.88;;;4.03;;
11998;SDS011;40817;51.520;9.954;2023-06-10T01:23:07;6.88;;;3.97;;
11998;SDS011;40817;51.520;9.954;2023-06-10T01:25:37;5.57;;;3.83;;
11998;SDS011;40817;51.520;9.954;2023-06-10T01:28:12;6.60;;;4.40;;
11998;SDS011;40817;51.520;9.954;2023-06-10T01:30:46;7.20;;;4.07;;
11998;SDS011;40817;51.520;9.954;2023-06-10T01:33:37;5.97;;;4.20;;
11998;SDS011;40817;51.520;9.954;2023-06-10T01:38:46;7.70;;;4.25;;
11998;SDS011;40817;51.520;9.954;2023-06-10T01:41:16;7.80;;;4.13;;
11998;SDS011;40817;51.520;9.954;2023-06-10T01:43:45;7.70;;;4.35;;
11998;SDS011;40817;51.520;9.954;2023-06-10T01:46:13;14.35;;;4.47;;
11998;SDS011;40817;51.520;9.954;2023-06-10T01:48:44;6.38;;;4.20;;
11998;SDS011;40817;51.520;9.954;2023-06-10T01:51:12;9.10;;;4.57;;
11998;SDS011;40817;51.520;9.954;2023-06-10T01:53:40;7.60;;;4.38;;
11998;SDS011;40817;51.520;9.954;2023-06-10T01:56:09;6.75;;;3.90;;
11998;SDS011;40817;51.520;9.954;2023-06-10T01:58:42;6.88;;;3.92;;
11998;SDS011;40817;51.520;9.954;2023-06-10T02:01:09;6.88;;;4.10;;
11998;SDS011;40817;51.520;9.954;2023-06-10T02:03:37;7.65;;;4.32;;
11998;SDS011;40817;51.520;9.954;2023-06-10T02:06:05;5.28;;;3.60;;
11998;SDS011;40817;51.520;9.954;2023-06-10T02:08:32;5.95;;;4.15;;
11998;SDS011;40817;51.520;9.954;2023-06-10T02:11:00;6.43;;;4.22;;
11998;SDS011;40817;51.520;9.954;2023-06-10T02:13:29;5.43;;;4.18;;
11998;SDS011;40817;51.520;9.954;2023-06-10T02:15:56;6.75;;;4.18;;
11998;SDS011;40817;51.520;9.954;2023-06-10T02:18:25;7.18;;;4.20;;
11998;SDS011;40817;51.520;9.954;2023-06-10T02:20:53;7.28;;;4.10;;
11998;SDS011;40817;51.520;9.954;2023-06-10T02:23:20;7.38;;;4.22;;
11998;SDS011;40817;51.520;9.954;2023-06-10T02:25:48;8.25;;;4.63;;
11998;SDS011;40817;51.520;9.954;2023-06-10T02:28:16;7.15;;;3.83;;
11998;SDS011;40817;51.520;9.954;2023-06-10T02:30:44;7.00;;;4.45;;
11998;SDS011;40817;51.520;9.954;2023-06-10T02:33:13;5.80;;;3.72;;
11998;SDS011;40817;51.520;9.954;2023-06-10T02:35:40;6.60;;;4.45;;
11998;SDS011;40817;51.520;9.954;2023-06-10T02:38:08;9.40;;;4.40;;
11998;SDS011;40817;51.520;9.954;2023-06-10T02:40:35;8.02;;;4.47;;
11998;SDS011;40817;51.520;9.954;2023-06-10T02:43:03;8.30;;;3.53;;
11998;SDS011;40817;51.520;9.954;2023-06-10T02:45:30;6.43;;;4.13;;
11998;SDS011;40817;51.520;9.954;2023-06-10T02:47:59;5.75;;;4.20;;
11998;SDS011;40817;51.520;9.954;2023-06-10T02:50:27;6.40;;;4.30;;
11998;SDS011;40817;51.520;9.954;2023-06-10T02:52:54;5.82;;;3.58;;
11998;SDS011;40817;51.520;9.954;2023-06-10T02:55:22;5.10;;;4.03;;
11998;SDS011;40817;51.520;9.954;2023-06-10T02:57:51;10.43;;;4.63;;
11998;SDS011;40817;51.520;9.954;2023-06-10T03:00:20;6.30;;;4.60;;
11998;SDS011;40817;51.520;9.954;2023-06-10T03:02:48;7.43;;;5.40;;
11998;SDS011;40817;51.520;9.954;2023-06-10T03:05:37;7.75;;;5.00;;
11998;SDS011;40817;51.520;9.954;2023-06-10T03:08:25;7.15;;;4.50;;
11998;SDS011;40817;51.520;9.954;2023-06-10T03:11:12;8.90;;;5.35;;
11998;SDS011;40817;51.520;9.954;2023-06-10T03:13:59;6.72;;;4.72;;
11998;SDS011;40817;51.520;9.954;2023-06-10T03:16:27;6.90;;;4.90;;
11998;SDS011;40817;51.520;9.954;2023-06-10T03:18:56;8.73;;;5.00;;
11998;SDS011;40817;51.520;9.954;2023-06-10T03:21:25;7.45;;;4.78;;
11998;SDS011;40817;51.520;9.954;2023-06-10T03:23:53;8.25;;;5.53;;
11998;SDS011;40817;51.520;9.954;2023-06-10T03:26:20;7.63;;;5.30;;
11998;SDS011;40817;51.520;9.954;2023-06-10T03:28:48;9.32;;;5.65;;
11998;SDS011;40817;51.520;9.954;2023-06-10T03:31:15;9.38;;;6.38;;
11998;SDS011;40817;51.520;9.954;2023-06-10T03:33:43;10.95;;;6.55;;
11998;SDS011;40817;51.520;9.954;2023-06-10T03:36:10;9.80;;;6.53;;
11998;SDS011;40817;51.520;9.954;2023-06-10T03:38:39;9.80;;;8.00;;
11998;SDS011;40817;51.520;9.954;2023-06-10T03:41:08;10.75;;;7.05;;
11998;SDS011;40817;51.520;9.954;2023-06-10T03:43:37;10.80;;;6.80;;
11998;SDS011;40817;51.520;9.954;2023-06-10T03:46:05;9.77;;;7.25;;
11998;SDS011;40817;51.520;9.954;2023-06-10T03:48:33;10.85;;;7.47;;
11998;SDS011;40817;51.520;9.954;2023-06-10T03:51:01;10.32;;;7.68;;
11998;SDS011;40817;51.520;9.954;2023-06-10T03:53:29;9.95;;;7.40;;
11998;SDS011;40817;51.520;9.954;2023-06-10T03:55:59;10.93;;;7.47;;
11998;SDS011;40817;51.520;9.954;2023-06-10T03:58:26;8.15;;;6.75;;
11998;SDS011;40817;51.520;9.954;2023-06-10T04:00:54;15.13;;;8.70;;
11998;SDS011;40817;51.520;9.954;2023-06-10T04:03:22;10.30;;;7.43;;
11998;SDS011;40817;51.520;9.954;2023-06-10T04:05:49;9.45;;;7.32;;
11998;SDS011;40817;51.520;9.954;2023-06-10T04:08:17;10.40;;;7.28;;
11998;SDS011;40817;51.520;9.954;2023-06-10T04:10:45;11.48;;;7.80;;
11998;SDS011;40817;51.520;9.954;2023-06-10T04:13:14;11.85;;;7.50;;
11998;SDS011;40817;51.520;9.954;2023-06-10T04:15:42;11.25;;;7.72;;
11998;SDS011;40817;51.520;9.954;2023-06-10T04:18:09;11.75;;;8.02;;
11998;SDS011;40817;51.520;9.954;2023-06-10T04:20:37;11.35;;;8.00;;
11998;SDS011;40817;51.520;9.954;2023-06-10T04:23:04;10.45;;;7.88;;
11998;SDS011;40817;51.520;9.954;2023-06-10T04:25:32;13.18;;;8.45;;
11998;SDS011;40817;51.520;9.954;2023-06-10T04:28:00;12.75;;;8.40;;
11998;SDS011;40817;51.520;9.954;2023-06-10T04:30:29;12.85;;;8.68;;
11998;SDS011;40817;51.520;9.954;2023-06-10T04:32:57;11.27;;;8.70;;
11998;SDS011;40817;51.520;9.954;2023-06-10T04:35:44;14.20;;;9.15;;
11998;SDS011;40817;51.520;9.954;2023-06-10T04:38:14;11.65;;;8.95;;
11998;SDS011;40817;51.520;9.954;2023-06-10T04:40:44;11.68;;;8.80;;
11998;SDS011;40817;51.520;9.954;2023-06-10T04:43:13;10.30;;;8.23;;
11998;SDS011;40817;51.520;9.954;2023-06-10T04:45:43;15.63;;;9.43;;
11998;SDS011;40817;51.520;9.954;2023-06-10T04:48:11;13.80;;;9.68;;
11998;SDS011;40817;51.520;9.954;2023-06-10T04:50:39;13.27;;;9.13;;
11998;SDS011;40817;51.520;9.954;2023-06-10T04:53:07;15.02;;;8.90;;
11998;SDS011;40817;51.520;9.954;2023-06-10T04:55:34;12.50;;;8.88;;
11998;SDS011;40817;51.520;9.954;2023-06-10T04:58:02;12.48;;;8.45;;
11998;SDS011;40817;51.520;9.954;2023-06-10T05:00:30;10.50;;;8.52;;
11998;SDS011;40817;51.520;9.954;2023-06-10T05:02:58;11.95;;;9.48;;
11998;SDS011;40817;51.520;9.954;2023-06-10T05:05:26;12.88;;;8.70;;
11998;SDS011;40817;51.520;9.954;2023-06-10T05:07:53;10.63;;;7.75;;
11998;SDS011;40817;51.520;9.954;2023-06-10T05:10:21;12.85;;;8.48;;
11998;SDS011;40817;51.520;9.954;2023-06-10T05:12:49;14.00;;;8.25;;
11998;SDS011;40817;51.520;9.954;2023-06-10T05:15:16;10.25;;;8.43;;
11998;SDS011;40817;51.520;9.954;2023-06-10T05:17:44;10.05;;;8.18;;
11998;SDS011;40817;51.520;9.954;2023-06-10T05:20:13;11.07;;;8.00;;
11998;SDS011;40817;51.520;9.954;2023-06-10T05:22:41;11.15;;;7.57;;
11998;SDS011;40817;51.520;9.954;2023-06-10T05:25:08;12.25;;;7.88;;
11998;SDS011;40817;51.520;9.954;2023-06-10T05:27:36;11.40;;;7.40;;
11998;SDS011;40817;51.520;9.954;2023-06-10T05:30:05;10.05;;;6.80;;
11998;SDS011;40817;51.520;9.954;2023-06-10T05:32:35;10.32;;;7.55;;
11998;SDS011;40817;51.520;9.954;2023-06-10T05:35:03;10.40;;;7.70;;
11998;SDS011;40817;51.520;9.954;2023-06-10T05:37:34;13.90;;;7.95;;
11998;SDS011;40817;51.520;9.954;2023-06-10T05:40:03;8.82;;;6.72;;
11998;SDS011;40817;51.520;9.954;2023-06-10T05:42:32;11.00;;;7.00;;
11998;SDS011;40817;51.520;9.954;2023-06-10T05:45:00;14.10;;;7.85;;
11998;SDS011;40817;51.520;9.954;2023-06-10T05:47:28;10.23;;;7.75;;
11998;SDS011;40817;51.520;9.954;2023-06-10T05:49:57;10.20;;;7.75;;
11998;SDS011;40817;51.520;9.954;2023-06-10T05:52:24;12.25;;;7.70;;
11998;SDS011;40817;51.520;9.954;2023-06-10T05:54:53;12.13;;;7.80;;
11998;SDS011;40817;51.520;9.954;2023-06-10T05:57:21;10.98;;;7.05;;
11998;SDS011;40817;51.520;9.954;2023-06-10T05:59:49;8.77;;;6.40;;
11998;SDS011;40817;51.520;9.954;2023-06-10T06:02:17;11.55;;;6.65;;
11998;SDS011;40817;51.520;9.954;2023-06-10T06:04:44;10.95;;;7.05;;
11998;SDS011;40817;51.520;9.954;2023-06-10T06:07:12;10.48;;;6.25;;
11998;SDS011;40817;51.520;9.954;2023-06-10T06:09:42;10.45;;;6.05;;
11998;SDS011;40817;51.520;9.954;2023-06-10T06:12:11;11.38;;;6.20;;
11998;SDS011;40817;51.520;9.954;2023-06-10T06:14:38;8.15;;;5.38;;
11998;SDS011;40817;51.520;9.954;2023-06-10T06:17:06;9.10;;;5.53;;
11998;SDS011;40817;51.520;9.954;2023-06-10T06:19:33;12.10;;;6.28;;
11998;SDS011;40817;51.520;9.954;2023-06-10T06:22:01;9.05;;;5.63;;
11998;SDS011;40817;51.520;9.954;2023-06-10T06:24:29;9.50;;;5.22;;
11998;SDS011;40817;51.520;9.954;2023-06-10T06:26:56;10.02;;;5.00;;
11998;SDS011;40817;51.520;9.954;2023-06-10T06:29:25;7.95;;;5.15;;
11998;SDS011;40817;51.520;9.954;2023-06-10T06:31:55;6.20;;;4.07;;
11998;SDS011;40817;51.520;9.954;2023-06-10T06:34:22;8.27;;;4.38;;
11998;SDS011;40817;51.520;9.954;2023-06-10T06:36:50;7.60;;;4.55;;
11998;SDS011;40817;51.520;9.954;2023-06-10T06:39:17;7.25;;;4.63;;
11998;SDS011;40817;51.520;9.954;2023-06-10T06:41:46;8.38;;;4.22;;
11998;SDS011;40817;51.520;9.954;2023-06-10T06:44:13;7.63;;;4.32;;
11998;SDS011;40817;51.520;9.954;2023-06-10T06:46:42;6.30;;;4.65;;
11998;SDS011;40817;51.520;9.954;2023-06-10T06:49:10;13.93;;;4.40;;
11998;SDS011;40817;51.520;9.954;2023-06-10T06:51:37;7.53;;;4.45;;
11998;SDS011;40817;51.520;9.954;2023-06-10T06:54:05;6.45;;;3.85;;
11998;SDS011;40817;51.520;9.954;2023-06-10T06:56:33;6.45;;;3.70;;
11998;SDS011;40817;51.520;9.954;2023-06-10T06:59:00;7.55;;;4.55;;
11998;SDS011;40817;51.520;9.954;2023-06-10T07:01:28;10.70;;;4.20;;
11998;SDS011;40817;51.520;9.954;2023-06-10T07:03:57;9.05;;;4.10;;
11998;SDS011;40817;51.520;9.954;2023-06-10T07:06:24;7.45;;;4.35;;
11998;SDS011;40817;51.520;9.954;2023-06-10T07:08:52;9.82;;;3.97;;
11998;SDS011;40817;51.520;9.954;2023-06-10T07:11:19;8.05;;;4.15;;
11998;SDS011;40817;51.520;9.954;2023-06-10T07:13:47;7.90;;;4.28;;
11998;SDS011;40817;51.520;9.954;2023-06-10T07:16:14;8.80;;;4.32;;
11998;SDS011;40817;51.520;9.954;2023-06-10T07:18:42;7.93;;;4.38;;
11998;SDS011;40817;51.520;9.954;2023-06-10T07:21:11;8.88;;;4.18;;
11998;SDS011;40817;51.520;9.954;2023-06-10T07:23:41;7.63;;;4.00;;
11998;SDS011;40817;51.520;9.954;2023-06-10T07:26:10;9.63;;;4.47;;
11998;SDS011;40817;51.520;9.954;2023-06-10T07:28:38;6.57;;;4.18;;
11998;SDS011;40817;51.520;9.954;2023-06-10T07:31:06;5.55;;;3.67;;
11998;SDS011;40817;51.520;9.954;2023-06-10T07:33:34;10.10;;;4.65;;
11998;SDS011;40817;51.520;9.954;2023-06-10T07:36:04;8.55;;;4.32;;
11998;SDS011;40817;51.520;9.954;2023-06-10T07:38:36;8.18;;;5.13;;
11998;SDS011;40817;51.520;9.954;2023-06-10T07:41:04;7.68;;;4.43;;
11998;SDS011;40817;51.520;9.954;2023-06-10T07:43:31;6.65;;;3.78;;
11998;SDS011;40817;51.520;9.954;2023-06-10T07:45:58;12.20;;;4.65;;
11998;SDS011;40817;51.520;9.954;2023-06-10T07:48:26;7.30;;;3.90;;
11998;SDS011;40817;51.520;9.954;2023-06-10T07:50:53;7.35;;;4.20;;
11998;SDS011;40817;51.520;9.954;2023-06-10T07:53:21;7.05;;;4.05;;
11998;SDS011;40817;51.520;9.954;2023-06-10T07:55:50;8.48;;;4.05;;
11998;SDS011;40817;51.520;9.954;2023-06-10T07:58:17;9.00;;;4.03;;
11998;SDS011;40817;51.520;9.954;2023-06-10T08:00:46;8.00;;;4.80;;
11998;SDS011;40817;51.520;9.954;2023-06-10T08:03:14;8.70;;;4.45;;
11998;SDS011;40817;51.520;9.954;2023-06-10T08:05:41;8.68;;;4.72;;
11998;SDS011;40817;51.520;9.954;2023-06-10T08:08:09;9.02;;;4.45;;
11998;SDS011;40817;51.520;9.954;2023-06-10T08:10:36;10.02;;;4.60;;
11998;SDS011;40817;51.520;9.954;2023-06-10T08:13:05;9.77;;;4.90;;
11998;SDS011;40817;51.520;9.954;2023-06-10T08:15:34;7.40;;;4.07;;
11998;SDS011;40817;51.520;9.954;2023-06-10T08:18:02;12.65;;;4.70;;
11998;SDS011;40817;51.520;9.954;2023-06-10T08:20:31;11.82;;;4.40;;
11998;SDS011;40817;51.520;9.954;2023-06-10T08:22:59;7.82;;;4.10;;
11998;SDS011;40817;51.520;9.954;2023-06-10T08:25:27;8.68;;;4.13;;
11998;SDS011;40817;51.520;9.954;2023-06-10T08:27:54;8.13;;;4.75;;
11998;SDS011;40817;51.520;9.954;2023-06-10T08:30:24;10.23;;;4.60;;
11998;SDS011;40817;51.520;9.954;2023-06-10T08:32:51;9.07;;;4.35;;
11998;SDS011;40817;51.520;9.954;2023-06-10T08:35:19;6.78;;;4.28;;
11998;SDS011;40817;51.520;9.954;2023-06-10T08:37:47;11.02;;;4.95;;
11998;SDS011;40817;51.520;9.954;2023-06-10T08:40:14;8.60;;;4.22;;
11998;SDS011;40817;51.520;9.954;2023-06-10T08:42:43;10.65;;;3.83;;
11998;SDS011;40817;51.520;9.954;2023-06-10T08:45:20;7.78;;;4.07;;
11998;SDS011;40817;51.520;9.954;2023-06-10T08:47:50;10.02;;;4.10;;
11998;SDS011;40817;51.520;9.954;2023-06-10T08:50:20;6.22;;;4.18;;
11998;SDS011;40817;51.520;9.954;2023-06-10T08:52:50;8.00;;;4.35;;
11998;SDS011;40817;51.520;9.954;2023-06-10T08:55:25;8.05;;;4.05;;
11998;SDS011;40817;51.520;9.954;2023-06-10T08:57:59;11.02;;;4.22;;
11998;SDS011;40817;51.520;9.954;2023-06-10T09:00:29;5.47;;;3.67;;
11998;SDS011;40817;51.520;9.954;2023-06-10T09:02:58;9.20;;;3.95;;
11998;SDS011;40817;51.520;9.954;2023-06-10T09:05:27;7.85;;;4.75;;
11998;SDS011;40817;51.520;9.954;2023-06-10T09:07:57;8.52;;;4.50;;
11998;SDS011;40817;51.520;9.954;2023-06-10T09:10:25;7.80;;;4.28;;
11998;SDS011;40817;51.520;9.954;2023-06-10T09:12:53;6.55;;;3.83;;
11998;SDS011;40817;51.520;9.954;2023-06-10T09:15:20;7.10;;;4.55;;
11998;SDS011;40817;51.520;9.954;2023-06-10T09:17:49;9.18;;;4.53;;
11998;SDS011;40817;51.520;9.954;2023-06-10T09:20:17;7.55;;;4.32;;
11998;SDS011;40817;51.520;9.954;2023-06-10T09:22:45;6.80;;;3.70;;
11998;SDS011;40817;51.520;9.954;2023-06-10T09:25:13;6.97;;;3.95;;
11998;SDS011;40817;51.520;9.954;2023-06-10T09:27:44;8.93;;;4.82;;
11998;SDS011;40817;51.520;9.954;2023-06-10T09:30:23;7.05;;;4.28;;
11998;SDS011;40817;51.520;9.954;2023-06-10T09:32:55;7.28;;;4.70;;
11998;SDS011;40817;51.520;9.954;2023-06-10T09:35:27;8.60;;;5.00;;
11998;SDS011;40817;51.520;9.954;2023-06-10T09:37:56;9.88;;;4.63;;
11998;SDS011;40817;51.520;9.954;2023-06-10T09:40:29;10.07;;;4.82;;
11998;SDS011;40817;51.520;9.954;2023-06-10T09:42:58;8.45;;;4.95;;
11998;SDS011;40817;51.520;9.954;2023-06-10T09:45:28;8.98;;;4.47;;
11998;SDS011;40817;51.520;9.954;2023-06-10T09:47:59;6.32;;;4.50;;
11998;SDS011;40817;51.520;9.954;2023-06-10T09:50:27;8.40;;;4.18;;
11998;SDS011;40817;51.520;9.954;2023-06-10T09:52:59;7.20;;;4.25;;
11998;SDS011;40817;51.520;9.954;2023-06-10T09:55:27;6.43;;;4.45;;
11998;SDS011;40817;51.520;9.954;2023-06-10T09:57:59;7.93;;;4.68;;
11998;SDS011;40817;51.520;9.954;2023-06-10T10:00:26;6.82;;;4.60;;
11998;SDS011;40817;51.520;9.954;2023-06-10T10:02:54;9.35;;;4.43;;
11998;SDS011;40817;51.520;9.954;2023-06-10T10:05:23;9.60;;;4.47;;
11998;SDS011;40817;51.520;9.954;2023-06-10T10:07:51;6.18;;;4.22;;
11998;SDS011;40817;51.520;9.954;2023-06-10T10:10:19;8.25;;;4.80;;
11998;SDS011;40817;51.520;9.954;2023-06-10T10:12:48;6.55;;;4.32;;
11998;SDS011;40817;51.520;9.954;2023-06-10T10:15:21;8.10;;;4.82;;
11998;SDS011;40817;51.520;9.954;2023-06-10T10:17:52;6.57;;;4.20;;
11998;SDS011;40817;51.520;9.954;2023-06-10T10:20:26;7.22;;;4.47;;
11998;SDS011;40817;51.520;9.954;2023-06-10T10:22:59;8.13;;;4.90;;
11998;SDS011;40817;51.520;9.954;2023-06-10T10:25:32;8.27;;;4.90;;
11998;SDS011;40817;51.520;9.954;2023-06-10T10:28:06;8.10;;;4.95;;
11998;SDS011;40817;51.520;9.954;2023-06-10T10:30:37;6.13;;;4.03;;
11998;SDS011;40817;51.520;9.954;2023-06-10T10:33:09;7.13;;;4.45;;
11998;SDS011;40817;51.520;9.954;2023-06-10T10:35:46;5.22;;;4.50;;
11998;SDS011;40817;51.520;9.954;2023-06-10T10:38:14;8.10;;;4.70;;
11998;SDS011;40817;51.520;9.954;2023-06-10T10:40:42;5.93;;;4.38;;
11998;SDS011;40817;51.520;9.954;2023-06-10T10:43:12;7.28;;;4.45;;
11998;SDS011;40817;51.520;9.954;2023-06-10T10:45:41;5.95;;;4.32;;
11998;SDS011;40817;51.520;9.954;2023-06-10T10:48:08;7.13;;;4.50;;
11998;SDS011;40817;51.520;9.954;2023-06-10T10:50:38;6.65;;;4.40;;
11998;SDS011;40817;51.520;9.954;2023-06-10T10:53:08;8.20;;;3.97;;
11998;SDS011;40817;51.520;9.954;2023-06-10T10:55:35;7.15;;;4.47;;
11998;SDS011;40817;51.520;9.954;2023-06-10T10:58:03;7.25;;;4.00;;
11998;SDS011;40817;51.520;9.954;2023-06-10T11:00:33;5.90;;;4.35;;
11998;SDS011;40817;51.520;9.954;2023-06-10T11:03:06;8.38;;;4.55;;
11998;SDS011;40817;51.520;9.954;2023-06-10T11:05:38;5.97;;;4.05;;
11998;SDS011;40817;51.520;9.954;2023-06-10T11:08:11;7.57;;;4.50;;
11998;SDS011;40817;51.520;9.954;2023-06-10T11:10:39;7.78;;;4.30;;
11998;SDS011;40817;51.520;9.954;2023-06-10T11:13:08;7.72;;;4.45;;
11998;SDS011;40817;51.520;9.954;2023-06-10T11:15:43;5.72;;;4.15;;
11998;SDS011;40817;51.520;9.954;2023-06-10T11:18:13;7.38;;;4.05;;
11998;SDS011;40817;51.520;9.954;2023-06-10T11:20:51;7.88;;;4.90;;
11998;SDS011;40817;51.520;9.954;2023-06-10T11:23:39;6.00;;;4.20;;
11998;SDS011;40817;51.520;9.954;2023-06-10T11:26:12;6.60;;;4.32;;
11998;SDS011;40817;51.520;9.954;2023-06-10T11:29:03;6.97;;;4.40;;
11998;SDS011;40817;51.520;9.954;2023-06-10T11:31:43;6.35;;;3.90;;
11998;SDS011;40817;51.520;9.954;2023-06-10T11:34:23;5.43;;;4.70;;
11998;SDS011;40817;51.520;9.954;2023-06-10T11:36:52;6.85;;;3.83;;
11998;SDS011;40817;51.520;9.954;2023-06-10T11:39:22;6.50;;;4.20;;
11998;SDS011;40817;51.520;9.954;2023-06-10T11:41:52;6.88;;;4.00;;
11998;SDS011;40817;51.520;9.954;2023-06-10T11:44:20;6.05;;;4.35;;
11998;SDS011;40817;51.520;9.954;2023-06-10T11:46:48;7.60;;;4.07;;
11998;SDS011;40817;51.520;9.954;2023-06-10T11:49:17;6.05;;;4.57;;
11998;SDS011;40817;51.520;9.954;2023-06-10T11:51:46;6.35;;;4.32;;
11998;SDS011;40817;51.520;9.954;2023-06-10T11:54:17;6.07;;;4.55;;
11998;SDS011;40817;51.520;9.954;2023-06-10T11:56:46;5.93;;;4.50;;
11998;SDS011;40817;51.520;9.954;2023-06-10T11:59:14;10.05;;;4.55;;
11998;SDS011;40817;51.520;9.954;2023-06-10T12:01:42;4.95;;;4.38;;
11998;SDS011;40817;51.520;9.954;2023-06-10T12:04:12;6.00;;;4.63;;
11998;SDS011;40817;51.520;9.954;2023-06-10T12:06:44;6.82;;;4.60;;
11998;SDS011;40817;51.520;9.954;2023-06-10T12:09:13;8.30;;;4.78;;
11998;SDS011;40817;51.520;9.954;2023-06-10T12:11:43;6.40;;;4.28;;
11998;SDS011;40817;51.520;9.954;2023-06-10T12:14:16;8.02;;;4.75;;
11998;SDS011;40817;51.520;9.954;2023-06-10T12:17:19;6.63;;;4.40;;
11998;SDS011;40817;51.520;9.954;2023-06-10T12:19:48;8.70;;;4.40;;
11998;SDS011;40817;51.520;9.954;2023-06-10T12:22:17;9.25;;;4.85;;
11998;SDS011;40817;51.520;9.954;2023-06-10T12:24:45;7.72;;;4.40;;
11998;SDS011;40817;51.520;9.954;2023-06-10T12:27:27;5.38;;;4.32;;
11998;SDS011;40817;51.520;9.954;2023-06-10T12:29:56;7.05;;;4.70;;
11998;SDS011;40817;51.520;9.954;2023-06-10T12:32:34;6.45;;;4.60;;
11998;SDS011;40817;51.520;9.954;2023-06-10T12:35:04;6.18;;;4.78;;
11998;SDS011;40817;51.520;9.954;2023-06-10T12:37:34;9.40;;;4.75;;
11998;SDS011;40817;51.520;9.954;2023-06-10T12:40:02;7.57;;;4.60;;
11998;SDS011;40817;51.520;9.954;2023-06-10T12:42:35;5.60;;;4.72;;
11998;SDS011;40817;51.520;9.954;2023-06-10T12:45:04;5.85;;;4.70;;
11998;SDS011;40817;51.520;9.954;2023-06-10T12:47:36;6.85;;;5.13;;
11998;SDS011;40817;51.520;9.954;2023-06-10T12:50:05;6.88;;;4.82;;
11998;SDS011;40817;51.520;9.954;2023-06-10T12:52:34;7.90;;;5.05;;
11998;SDS011;40817;51.520;9.954;2023-06-10T12:55:01;7.32;;;4.97;;
11998;SDS011;40817;51.520;9.954;2023-06-10T12:57:31;5.82;;;4.05;;
11998;SDS011;40817;51.520;9.954;2023-06-10T13:00:00;6.70;;;4.45;;
11998;SDS011;40817;51.520;9.954;2023-06-10T13:02:29;5.70;;;4.22;;
11998;SDS011;40817;51.520;9.954;2023-06-10T13:04:57;4.63;;;3.90;;
11998;SDS011;40817;51.520;9.954;2023-06-10T13:07:24;7.18;;;4.05;;
11998;SDS011;40817;51.520;9.954;2023-06-10T13:09:52;6.60;;;3.85;;
11998;SDS011;40817;51.520;9.954;2023-06-10T13:12:20;6.05;;;4.20;;
11998;SDS011;40817;51.520;9.954;2023-06-10T13:14:47;6.28;;;4.25;;
11998;SDS011;40817;51.520;9.954;2023-06-10T13:17:16;5.43;;;4.03;;
11998;SDS011;40817;51.520;9.954;2023-06-10T13:19:44;5.50;;;3.90;;
11998;SDS011;40817;51.520;9.954;2023-06-10T13:22:11;9.05;;;4.28;;
11998;SDS011;40817;51.520;9.954;2023-06-10T13:24:40;12.65;;;4.15;;
11998;SDS011;40817;51.520;9.954;2023-06-10T13:27:09;6.10;;;4.28;;
11998;SDS011;40817;51.520;9.954;2023-06-10T13:29:37;10.32;;;5.30;;
11998;SDS011;40817;51.520;9.954;2023-06-10T13:32:05;12.32;;;5.13;;
11998;SDS011;40817;51.520;9.954;2023-06-10T13:34:36;7.45;;;4.20;;
11998;SDS011;40817;51.520;9.954;2023-06-10T13:37:04;6.30;;;3.97;;
11998;SDS011;40817;51.520;9.954;2023-06-10T13:39:38;4.65;;;4.18;;
11998;SDS011;40817;51.520;9.954;2023-06-10T13:42:06;5.03;;;3.70;;
11998;SDS011;40817;51.520;9.954;2023-06-10T13:44:34;4.63;;;3.80;;
11998;SDS011;40817;51.520;9.954;2023-06-10T13:47:02;5.72;;;3.80;;
11998;SDS011;40817;51.520;9.954;2023-06-10T13:49:31;5.93;;;3.72;;
11998;SDS011;40817;51.520;9.954;2023-06-10T13:52:00;6.28;;;3.72;;
11998;SDS011;40817;51.520;9.954;2023-06-10T13:54:27;5.30;;;3.20;;
11998;SDS011;40817;51.520;9.954;2023-06-10T13:56:55;4.55;;;3.58;;
11998;SDS011;40817;51.520;9.954;2023-06-10T13:59:23;5.95;;;3.55;;
11998;SDS011;40817;51.520;9.954;2023-06-10T14:01:50;5.80;;;3.78;;
11998;SDS011;40817;51.520;9.954;2023-06-10T14:04:17;5.13;;;3.60;;
11998;SDS011;40817;51.520;9.954;2023-06-10T14:06:45;6.25;;;3.50;;
11998;SDS011;40817;51.520;9.954;2023-06-10T14:09:14;6.63;;;3.75;;
11998;SDS011;40817;51.520;9.954;2023-06-10T14:11:42;7.18;;;3.72;;
11998;SDS011;40817;51.520;9.954;2023-06-10T14:14:10;5.70;;;3.83;;
11998;SDS011;40817;51.520;9.954;2023-06-10T14:16:38;4.28;;;3.70;;
11998;SDS011;40817;51.520;9.954;2023-06-10T14:19:05;5.88;;;3.70;;
11998;SDS011;40817;51.520;9.954;2023-06-10T14:21:33;5.68;;;3.95;;
11998;SDS011;40817;51.520;9.954;2023-06-10T14:24:01;6.20;;;3.90;;
11998;SDS011;40817;51.520;9.954;2023-06-10T14:26:30;6.75;;;4.35;;
11998;SDS011;40817;51.520;9.954;2023-06-10T14:28:58;6.70;;;3.70;;
11998;SDS011;40817;51.520;9.954;2023-06-10T14:31:25;7.00;;;4.35;;
11998;SDS011;40817;51.520;9.954;2023-06-10T14:33:53;7.07;;;4.00;;
11998;SDS011;40817;51.520;9.954;2023-06-10T14:36:20;5.03;;;3.60;;
11998;SDS011;40817;51.520;9.954;2023-06-10T14:38:48;7.55;;;4.03;;
11998;SDS011;40817;51.520;9.954;2023-06-10T14:41:15;7.82;;;4.75;;
11998;SDS011;40817;51.520;9.954;2023-06-10T14:43:44;7.20;;;4.05;;
11998;SDS011;40817;51.520;9.954;2023-06-10T14:46:12;5.45;;;4.38;;
11998;SDS011;40817;51.520;9.954;2023-06-10T14:48:39;6.10;;;3.75;;
11998;SDS011;40817;51.520;9.954;2023-06-10T14:51:07;5.28;;;4.18;;
11998;SDS011;40817;51.520;9.954;2023-06-10T14:53:34;8.55;;;4.72;;
11998;SDS011;40817;51.520;9.954;2023-06-10T14:56:02;6.05;;;4.13;;
11998;SDS011;40817;51.520;9.954;2023-06-10T14:58:30;6.40;;;4.15;;
11998;SDS011;40817;51.520;9.954;2023-06-10T15:00:59;6.22;;;4.13;;